sensor_id;sensor_type;location;lat;lon;timestamp;temperature;humidity
11142;DHT22;5625;50.122;19.864;2022-09-09T00:00:55;19.70;99.90
11142;DHT22;5625;50.122;19.864;2022-09-09T00:03:34;19.60;99.90
11142;DHT22;5625;50.122;19.864;2022-09-09T00:06:09;19.60;99.90
11142;DHT22;5625;50.122;19.864;2022-09-09T00:08:53;19.60;99.90
11142;DHT22;5625;50.122;19.864;2022-09-09T00:11:28;19.60;99.90
11142;DHT22;5625;50.122;19.864;2022-09-09T00:14:00;19.60;99.90
11142;DHT22;5625;50.122;19.864;2022-09-09T00:16:35;19.50;99.90
11142;DHT22;5625;50.122;19.864;2022-09-09T00:19:07;19.50;99.90
11142;DHT22;5625;50.122;19.864;2022-09-09T00:21:46;19.50;99.90
11142;DHT22;5625;50.122;19.864;2022-09-09T00:24:22;19.50;99.90
11142;DHT22;5625;50.122;19.864;2022-09-09T00:26:57;19.50;99.90
11142;DHT22;5625;50.122;19.864;2022-09-09T00:29:33;19.50;99.90
11142;DHT22;5625;50.122;19.864;2022-09-09T00:32:12;19.40;99.90
11142;DHT22;5625;50.122;19.864;2022-09-09T00:34:46;19.40;99.90
11142;DHT22;5625;50.122;19.864;2022-09-09T00:37:15;19.40;99.90
11142;DHT22;5625;50.122;19.864;2022-09-09T00:39:45;19.40;99.90
11142;DHT22;5625;50.122;19.864;2022-09-09T00:42:16;19.40;99.90
11142;DHT22;5625;50.122;19.864;2022-09-09T00:44:53;19.40;99.90
11142;DHT22;5625;50.122;19.864;2022-09-09T00:47:39;19.30;99.90
11142;DHT22;5625;50.122;19.864;2022-09-09T00:50:30;19.30;99.90
11142;DHT22;5625;50.122;19.864;2022-09-09T00:53:10;19.30;99.90
11142;DHT22;5625;50.122;19.864;2022-09-09T00:55:43;19.30;99.90
11142;DHT22;5625;50.122;19.864;2022-09-09T00:58:14;19.30;99.90
11142;DHT22;5625;50.122;19.864;2022-09-09T01:00:44;19.30;99.90
11142;DHT22;5625;50.122;19.864;2022-09-09T01:03:22;19.30;99.90
11142;DHT22;5625;50.122;19.864;2022-09-09T01:06:01;19.30;99.90
11142;DHT22;5625;50.122;19.864;2022-09-09T01:08:48;19.30;99.90
11142;DHT22;5625;50.122;19.864;2022-09-09T01:11:22;19.20;99.90
11142;DHT22;5625;50.122;19.864;2022-09-09T01:13:56;19.20;99.90
11142;DHT22;5625;50.122;19.864;2022-09-09T01:16:30;19.20;99.90
11142;DHT22;5625;50.122;19.864;2022-09-09T01:19:01;19.20;99.90
11142;DHT22;5625;50.122;19.864;2022-09-09T01:21:38;19.10;99.90
11142;DHT22;5625;50.122;19.864;2022-09-09T01:24:22;19.10;99.90
11142;DHT22;5625;50.122;19.864;2022-09-09T01:26:55;19.10;99.90
11142;DHT22;5625;50.122;19.864;2022-09-09T01:29:24;19.10;99.90
11142;DHT22;5625;50.122;19.864;2022-09-09T01:31:55;19.10;99.90
11142;DHT22;5625;50.122;19.864;2022-09-09T01:34:25;19.10;99.90
11142;DHT22;5625;50.122;19.864;2022-09-09T01:36:59;19.00;99.90
11142;DHT22;5625;50.122;19.864;2022-09-09T01:39:28;19.00;99.90
11142;DHT22;5625;50.122;19.864;2022-09-09T01:41:58;19.00;99.90
11142;DHT22;5625;50.122;19.864;2022-09-09T01:44:27;19.00;99.90
11142;DHT22;5625;50.122;19.864;2022-09-09T01:46:56;18.90;99.90
11142;DHT22;5625;50.122;19.864;2022-09-09T01:49:24;18.90;99.90
11142;DHT22;5625;50.122;19.864;2022-09-09T01:51:53;18.80;99.90
11142;DHT22;5625;50.122;19.864;2022-09-09T01:54:25;18.80;99.90
11142;DHT22;5625;50.122;19.864;2022-09-09T01:57:01;18.80;99.90
11142;DHT22;5625;50.122;19.864;2022-09-09T01:59:44;18.70;99.90
11142;DHT22;5625;50.122;19.864;2022-09-09T02:02:16;18.70;99.90
11142;DHT22;5625;50.122;19.864;2022-09-09T02:04:47;18.70;99.90
11142;DHT22;5625;50.122;19.864;2022-09-09T02:07:30;18.60;99.90
11142;DHT22;5625;50.122;19.864;2022-09-09T02:10:08;18.60;99.90
11142;DHT22;5625;50.122;19.864;2022-09-09T02:12:40;18.60;99.90
11142;DHT22;5625;50.122;19.864;2022-09-09T02:15:17;18.60;99.90
11142;DHT22;5625;50.122;19.864;2022-09-09T02:17:49;18.50;99.90
11142;DHT22;5625;50.122;19.864;2022-09-09T02:20:19;18.50;99.90
11142;DHT22;5625;50.122;19.864;2022-09-09T02:22:50;18.50;99.90
11142;DHT22;5625;50.122;19.864;2022-09-09T02:25:22;18.50;99.90
11142;DHT22;5625;50.122;19.864;2022-09-09T02:27:52;18.50;99.90
11142;DHT22;5625;50.122;19.864;2022-09-09T02:30:20;18.50;99.90
11142;DHT22;5625;50.122;19.864;2022-09-09T02:32:50;18.50;99.90
11142;DHT22;5625;50.122;19.864;2022-09-09T02:35:21;18.40;99.90
11142;DHT22;5625;50.122;19.864;2022-09-09T02:37:53;18.40;99.90
11142;DHT22;5625;50.122;19.864;2022-09-09T02:40:22;18.40;99.90
11142;DHT22;5625;50.122;19.864;2022-09-09T02:42:54;18.40;99.90
11142;DHT22;5625;50.122;19.864;2022-09-09T02:45:25;18.40;99.90
11142;DHT22;5625;50.122;19.864;2022-09-09T02:48:03;18.30;99.90
11142;DHT22;5625;50.122;19.864;2022-09-09T02:50:39;18.30;99.90
11142;DHT22;5625;50.122;19.864;2022-09-09T02:53:16;18.20;99.90
11142;DHT22;5625;50.122;19.864;2022-09-09T02:55:47;18.20;99.90
11142;DHT22;5625;50.122;19.864;2022-09-09T02:58:18;18.20;99.90
11142;DHT22;5625;50.122;19.864;2022-09-09T03:00:48;18.20;99.90
11142;DHT22;5625;50.122;19.864;2022-09-09T03:03:18;18.20;99.90
11142;DHT22;5625;50.122;19.864;2022-09-09T03:05:46;18.20;99.90
11142;DHT22;5625;50.122;19.864;2022-09-09T03:08:15;18.10;99.90
11142;DHT22;5625;50.122;19.864;2022-09-09T03:10:43;18.10;99.90
11142;DHT22;5625;50.122;19.864;2022-09-09T03:13:11;18.10;99.90
11142;DHT22;5625;50.122;19.864;2022-09-09T03:15:43;18.10;99.90
11142;DHT22;5625;50.122;19.864;2022-09-09T03:18:11;18.10;99.90
11142;DHT22;5625;50.122;19.864;2022-09-09T03:20:39;18.00;99.90
11142;DHT22;5625;50.122;19.864;2022-09-09T03:23:08;18.00;99.90
11142;DHT22;5625;50.122;19.864;2022-09-09T03:25:46;18.00;99.90
11142;DHT22;5625;50.122;19.864;2022-09-09T03:28:15;18.00;99.90
11142;DHT22;5625;50.122;19.864;2022-09-09T03:30:45;18.00;99.90
11142;DHT22;5625;50.122;19.864;2022-09-09T03:33:13;18.00;99.90
11142;DHT22;5625;50.122;19.864;2022-09-09T03:35:45;18.00;99.90
11142;DHT22;5625;50.122;19.864;2022-09-09T03:38:15;18.00;99.90
11142;DHT22;5625;50.122;19.864;2022-09-09T03:40:49;18.00;99.90
11142;DHT22;5625;50.122;19.864;2022-09-09T03:43:17;18.00;99.90
11142;DHT22;5625;50.122;19.864;2022-09-09T03:45:48;18.00;99.90
11142;DHT22;5625;50.122;19.864;2022-09-09T03:48:17;18.00;99.90
11142;DHT22;5625;50.122;19.864;2022-09-09T03:50:46;17.90;99.90
11142;DHT22;5625;50.122;19.864;2022-09-09T03:53:15;17.90;99.90
11142;DHT22;5625;50.122;19.864;2022-09-09T03:55:44;17.90;99.90
11142;DHT22;5625;50.122;19.864;2022-09-09T03:58:13;18.00;99.90
11142;DHT22;5625;50.122;19.864;2022-09-09T04:00:41;17.90;99.90
11142;DHT22;5625;50.122;19.864;2022-09-09T04:03:13;18.00;99.90
11142;DHT22;5625;50.122;19.864;2022-09-09T04:05:42;17.90;99.90
11142;DHT22;5625;50.122;19.864;2022-09-09T04:08:10;17.90;99.90
11142;DHT22;5625;50.122;19.864;2022-09-09T04:10:38;17.90;99.90
11142;DHT22;5625;50.122;19.864;2022-09-09T04:13:06;17.90;99.90
11142;DHT22;5625;50.122;19.864;2022-09-09T04:15:34;17.90;99.90
11142;DHT22;5625;50.122;19.864;2022-09-09T04:18:03;17.90;99.90
11142;DHT22;5625;50.122;19.864;2022-09-09T04:20:34;17.90;99.90
11142;DHT22;5625;50.122;19.864;2022-09-09T04:23:02;17.90;99.90
11142;DHT22;5625;50.122;19.864;2022-09-09T04:25:31;17.90;99.90
11142;DHT22;5625;50.122;19.864;2022-09-09T04:28:00;18.00;99.90
11142;DHT22;5625;50.122;19.864;2022-09-09T04:30:29;17.90;99.90
11142;DHT22;5625;50.122;19.864;2022-09-09T04:32:57;17.90;99.90
11142;DHT22;5625;50.122;19.864;2022-09-09T04:35:25;17.90;99.90
11142;DHT22;5625;50.122;19.864;2022-09-09T04:37:55;17.90;99.90
11142;DHT22;5625;50.122;19.864;2022-09-09T04:40:23;17.90;99.90
11142;DHT22;5625;50.122;19.864;2022-09-09T04:42:51;17.90;99.90
11142;DHT22;5625;50.122;19.864;2022-09-09T04:45:19;18.00;99.90
11142;DHT22;5625;50.122;19.864;2022-09-09T04:47:47;18.10;99.90
11142;DHT22;5625;50.122;19.864;2022-09-09T04:50:16;18.30;99.90
11142;DHT22;5625;50.122;19.864;2022-09-09T04:52:50;18.40;99.90
11142;DHT22;5625;50.122;19.864;2022-09-09T04:55:20;18.60;99.90
11142;DHT22;5625;50.122;19.864;2022-09-09T04:57:48;18.80;99.90
11142;DHT22;5625;50.122;19.864;2022-09-09T05:00:16;18.90;99.90
11142;DHT22;5625;50.122;19.864;2022-09-09T05:02:46;19.00;99.90
11142;DHT22;5625;50.122;19.864;2022-09-09T05:05:14;19.20;99.90
11142;DHT22;5625;50.122;19.864;2022-09-09T05:07:43;19.40;99.90
11142;DHT22;5625;50.122;19.864;2022-09-09T05:10:11;19.50;99.90
11142;DHT22;5625;50.122;19.864;2022-09-09T05:12:42;19.50;99.90
11142;DHT22;5625;50.122;19.864;2022-09-09T05:15:10;19.50;99.90
11142;DHT22;5625;50.122;19.864;2022-09-09T05:17:38;19.40;99.90
11142;DHT22;5625;50.122;19.864;2022-09-09T05:20:07;19.30;99.90
11142;DHT22;5625;50.122;19.864;2022-09-09T05:22:41;19.10;99.90
11142;DHT22;5625;50.122;19.864;2022-09-09T05:25:09;19.00;99.90
11142;DHT22;5625;50.122;19.864;2022-09-09T05:27:37;18.90;99.90
11142;DHT22;5625;50.122;19.864;2022-09-09T05:30:08;18.90;99.90
11142;DHT22;5625;50.122;19.864;2022-09-09T05:32:37;18.80;99.90
11142;DHT22;5625;50.122;19.864;2022-09-09T05:35:05;18.80;99.90
11142;DHT22;5625;50.122;19.864;2022-09-09T05:37:33;18.80;99.90
11142;DHT22;5625;50.122;19.864;2022-09-09T05:40:02;18.80;99.90
11142;DHT22;5625;50.122;19.864;2022-09-09T05:42:30;18.80;99.90
11142;DHT22;5625;50.122;19.864;2022-09-09T05:44:59;19.10;99.90
11142;DHT22;5625;50.122;19.864;2022-09-09T05:47:28;19.30;99.90
11142;DHT22;5625;50.122;19.864;2022-09-09T05:49:56;19.40;99.90
11142;DHT22;5625;50.122;19.864;2022-09-09T05:52:24;19.60;99.90
11142;DHT22;5625;50.122;19.864;2022-09-09T05:54:53;20.10;97.80
11142;DHT22;5625;50.122;19.864;2022-09-09T05:57:23;20.60;94.30
11142;DHT22;5625;50.122;19.864;2022-09-09T05:59:51;21.20;90.00
11142;DHT22;5625;50.122;19.864;2022-09-09T06:02:20;21.60;80.10
11142;DHT22;5625;50.122;19.864;2022-09-09T06:04:49;21.70;72.90
11142;DHT22;5625;50.122;19.864;2022-09-09T06:07:18;22.00;66.90
11142;DHT22;5625;50.122;19.864;2022-09-09T06:09:46;22.10;60.30
11142;DHT22;5625;50.122;19.864;2022-09-09T06:12:14;21.80;68.40
11142;DHT22;5625;50.122;19.864;2022-09-09T06:14:43;21.60;74.60
11142;DHT22;5625;50.122;19.864;2022-09-09T06:17:12;21.40;75.10
11142;DHT22;5625;50.122;19.864;2022-09-09T06:19:40;21.30;78.90
11142;DHT22;5625;50.122;19.864;2022-09-09T06:22:09;21.00;84.10
11142;DHT22;5625;50.122;19.864;2022-09-09T06:24:38;20.80;88.10
11142;DHT22;5625;50.122;19.864;2022-09-09T06:27:06;20.80;89.60
11142;DHT22;5625;50.122;19.864;2022-09-09T06:29:34;21.30;84.10
11142;DHT22;5625;50.122;19.864;2022-09-09T06:32:03;21.60;69.60
11142;DHT22;5625;50.122;19.864;2022-09-09T06:34:31;21.70;68.00
11142;DHT22;5625;50.122;19.864;2022-09-09T06:36:59;21.50;68.70
11142;DHT22;5625;50.122;19.864;2022-09-09T06:39:28;21.80;64.20
11142;DHT22;5625;50.122;19.864;2022-09-09T06:41:57;21.80;64.10
11142;DHT22;5625;50.122;19.864;2022-09-09T06:44:25;21.80;65.60
11142;DHT22;5625;50.122;19.864;2022-09-09T06:46:58;22.10;61.60
11142;DHT22;5625;50.122;19.864;2022-09-09T06:49:26;22.30;52.70
11142;DHT22;5625;50.122;19.864;2022-09-09T06:51:54;22.60;49.20
11142;DHT22;5625;50.122;19.864;2022-09-09T06:54:22;23.10;35.90
11142;DHT22;5625;50.122;19.864;2022-09-09T06:56:51;23.30;24.70
11142;DHT22;5625;50.122;19.864;2022-09-09T06:59:20;23.30;9.20
11142;DHT22;5625;50.122;19.864;2022-09-09T07:01:48;23.20;9.10
11142;DHT22;5625;50.122;19.864;2022-09-09T07:04:21;23.10;12.00
11142;DHT22;5625;50.122;19.864;2022-09-09T07:06:49;23.60;1.00
11142;DHT22;5625;50.122;19.864;2022-09-09T07:09:19;23.80;1.00
11142;DHT22;5625;50.122;19.864;2022-09-09T07:11:51;23.60;1.00
11142;DHT22;5625;50.122;19.864;2022-09-09T07:14:19;23.40;2.40
11142;DHT22;5625;50.122;19.864;2022-09-09T07:16:48;23.40;1.30
11142;DHT22;5625;50.122;19.864;2022-09-09T07:19:16;23.40;3.40
11142;DHT22;5625;50.122;19.864;2022-09-09T07:21:44;23.60;1.00
11142;DHT22;5625;50.122;19.864;2022-09-09T07:24:12;23.70;1.00
11142;DHT22;5625;50.122;19.864;2022-09-09T07:26:40;23.80;1.00
11142;DHT22;5625;50.122;19.864;2022-09-09T07:29:10;24.60;1.00
11142;DHT22;5625;50.122;19.864;2022-09-09T07:31:46;25.30;1.00
11142;DHT22;5625;50.122;19.864;2022-09-09T07:34:15;25.20;1.00
11142;DHT22;5625;50.122;19.864;2022-09-09T07:36:43;25.60;1.00
11142;DHT22;5625;50.122;19.864;2022-09-09T07:39:13;25.60;1.00
11142;DHT22;5625;50.122;19.864;2022-09-09T07:41:45;25.80;1.00
11142;DHT22;5625;50.122;19.864;2022-09-09T07:44:16;26.80;1.00
11142;DHT22;5625;50.122;19.864;2022-09-09T07:46:44;27.60;99.90
11142;DHT22;5625;50.122;19.864;2022-09-09T07:49:13;28.20;99.90
11142;DHT22;5625;50.122;19.864;2022-09-09T07:51:43;28.70;99.90
11142;DHT22;5625;50.122;19.864;2022-09-09T07:54:14;29.10;99.90
11142;DHT22;5625;50.122;19.864;2022-09-09T07:56:42;29.60;99.90
11142;DHT22;5625;50.122;19.864;2022-09-09T07:59:10;30.10;99.90
11142;DHT22;5625;50.122;19.864;2022-09-09T08:01:42;30.50;72.90
11142;DHT22;5625;50.122;19.864;2022-09-09T08:04:12;30.80;14.20
11142;DHT22;5625;50.122;19.864;2022-09-09T08:06:44;30.90;1.00
11142;DHT22;5625;50.122;19.864;2022-09-09T08:09:14;30.40;1.00
11142;DHT22;5625;50.122;19.864;2022-09-09T08:11:42;30.70;1.00
11142;DHT22;5625;50.122;19.864;2022-09-09T08:14:11;31.20;1.00
11142;DHT22;5625;50.122;19.864;2022-09-09T08:16:42;30.60;1.00
11142;DHT22;5625;50.122;19.864;2022-09-09T08:19:11;30.20;1.00
11142;DHT22;5625;50.122;19.864;2022-09-09T08:21:41;30.70;99.90
11142;DHT22;5625;50.122;19.864;2022-09-09T08:24:10;31.10;99.90
11142;DHT22;5625;50.122;19.864;2022-09-09T08:26:40;31.00;99.90
11142;DHT22;5625;50.122;19.864;2022-09-09T08:29:10;30.90;99.90
11142;DHT22;5625;50.122;19.864;2022-09-09T08:31:44;30.40;99.90
11142;DHT22;5625;50.122;19.864;2022-09-09T08:34:13;30.30;99.90
11142;DHT22;5625;50.122;19.864;2022-09-09T08:36:43;30.90;99.90
11142;DHT22;5625;50.122;19.864;2022-09-09T08:39:13;31.00;42.20
11142;DHT22;5625;50.122;19.864;2022-09-09T08:42:09;30.70;1.00
11142;DHT22;5625;50.122;19.864;2022-09-09T08:44:50;30.90;60.10
11142;DHT22;5625;50.122;19.864;2022-09-09T08:47:29;30.90;99.90
11142;DHT22;5625;50.122;19.864;2022-09-09T08:50:07;31.20;1.00
11142;DHT22;5625;50.122;19.864;2022-09-09T08:52:48;31.20;1.00
11142;DHT22;5625;50.122;19.864;2022-09-09T08:55:24;31.20;99.90
11142;DHT22;5625;50.122;19.864;2022-09-09T08:57:56;31.20;32.60
11142;DHT22;5625;50.122;19.864;2022-09-09T09:00:30;31.20;99.90
11142;DHT22;5625;50.122;19.864;2022-09-09T09:03:09;31.50;99.90
11142;DHT22;5625;50.122;19.864;2022-09-09T09:05:47;31.70;99.90
11142;DHT22;5625;50.122;19.864;2022-09-09T09:08:22;31.00;99.90
11142;DHT22;5625;50.122;19.864;2022-09-09T09:10:55;30.50;99.90
11142;DHT22;5625;50.122;19.864;2022-09-09T09:13:30;30.80;99.90
11142;DHT22;5625;50.122;19.864;2022-09-09T09:16:17;31.50;99.90
11142;DHT22;5625;50.122;19.864;2022-09-09T09:18:48;31.60;99.90
11142;DHT22;5625;50.122;19.864;2022-09-09T09:21:21;31.00;99.90
11142;DHT22;5625;50.122;19.864;2022-09-09T09:23:56;30.40;99.90
11142;DHT22;5625;50.122;19.864;2022-09-09T09:26:30;30.10;99.90
11142;DHT22;5625;50.122;19.864;2022-09-09T09:29:03;30.10;1.00
11142;DHT22;5625;50.122;19.864;2022-09-09T09:31:36;30.40;99.90
11142;DHT22;5625;50.122;19.864;2022-09-09T09:34:08;30.40;99.90
11142;DHT22;5625;50.122;19.864;2022-09-09T09:36:41;30.70;99.90
11142;DHT22;5625;50.122;19.864;2022-09-09T09:39:21;31.10;99.90
11142;DHT22;5625;50.122;19.864;2022-09-09T09:42:10;31.10;99.90
11142;DHT22;5625;50.122;19.864;2022-09-09T09:44:47;31.20;13.50
11142;DHT22;5625;50.122;19.864;2022-09-09T09:47:17;31.50;1.00
11142;DHT22;5625;50.122;19.864;2022-09-09T09:49:53;31.60;1.00
11142;DHT22;5625;50.122;19.864;2022-09-09T09:52:25;31.60;1.00
11142;DHT22;5625;50.122;19.864;2022-09-09T09:54:56;31.90;1.00
11142;DHT22;5625;50.122;19.864;2022-09-09T09:57:31;32.30;1.00
11142;DHT22;5625;50.122;19.864;2022-09-09T10:00:14;32.30;1.00
11142;DHT22;5625;50.122;19.864;2022-09-09T10:02:44;32.40;99.90
11142;DHT22;5625;50.122;19.864;2022-09-09T10:05:17;32.70;99.90
11142;DHT22;5625;50.122;19.864;2022-09-09T10:08:04;32.90;99.90
11142;DHT22;5625;50.122;19.864;2022-09-09T10:10:56;33.00;99.90
11142;DHT22;5625;50.122;19.864;2022-09-09T10:13:32;33.00;99.90
11142;DHT22;5625;50.122;19.864;2022-09-09T10:16:13;33.10;99.90
11142;DHT22;5625;50.122;19.864;2022-09-09T10:18:53;33.10;99.90
11142;DHT22;5625;50.122;19.864;2022-09-09T10:21:43;32.50;99.90
11142;DHT22;5625;50.122;19.864;2022-09-09T10:24:44;32.10;99.90
11142;DHT22;5625;50.122;19.864;2022-09-09T10:27:22;32.00;87.30
11142;DHT22;5625;50.122;19.864;2022-09-09T10:30:02;32.50;98.80
11142;DHT22;5625;50.122;19.864;2022-09-09T10:32:42;32.90;99.90
11142;DHT22;5625;50.122;19.864;2022-09-09T10:35:24;33.10;93.20
11142;DHT22;5625;50.122;19.864;2022-09-09T10:38:14;33.20;22.90
11142;DHT22;5625;50.122;19.864;2022-09-09T10:44:06;33.50;99.90
11142;DHT22;5625;50.122;19.864;2022-09-09T10:46:52;33.60;99.90
11142;DHT22;5625;50.122;19.864;2022-09-09T10:49:43;33.80;99.90
11142;DHT22;5625;50.122;19.864;2022-09-09T10:52:22;33.80;1.00
11142;DHT22;5625;50.122;19.864;2022-09-09T10:54:56;33.80;1.00
11142;DHT22;5625;50.122;19.864;2022-09-09T10:57:31;33.90;99.90
11142;DHT22;5625;50.122;19.864;2022-09-09T11:00:05;34.00;99.90
11142;DHT22;5625;50.122;19.864;2022-09-09T11:02:34;33.90;1.00
11142;DHT22;5625;50.122;19.864;2022-09-09T11:05:07;33.70;1.00
11142;DHT22;5625;50.122;19.864;2022-09-09T11:07:40;33.30;1.00
11142;DHT22;5625;50.122;19.864;2022-09-09T11:10:22;32.60;99.90
11142;DHT22;5625;50.122;19.864;2022-09-09T11:12:56;32.20;99.90
11142;DHT22;5625;50.122;19.864;2022-09-09T11:15:29;31.80;1.00
11142;DHT22;5625;50.122;19.864;2022-09-09T11:18:01;31.50;1.00
11142;DHT22;5625;50.122;19.864;2022-09-09T11:20:32;31.30;1.00
11142;DHT22;5625;50.122;19.864;2022-09-09T11:23:04;31.00;1.00
11142;DHT22;5625;50.122;19.864;2022-09-09T11:25:36;31.20;48.80
11142;DHT22;5625;50.122;19.864;2022-09-09T11:28:31;31.80;1.00
11142;DHT22;5625;50.122;19.864;2022-09-09T11:31:21;32.20;1.00
11142;DHT22;5625;50.122;19.864;2022-09-09T11:34:10;32.40;1.00
11142;DHT22;5625;50.122;19.864;2022-09-09T11:36:56;32.60;1.00
11142;DHT22;5625;50.122;19.864;2022-09-09T11:39:43;32.60;99.90
11142;DHT22;5625;50.122;19.864;2022-09-09T11:42:20;32.70;1.00
11142;DHT22;5625;50.122;19.864;2022-09-09T11:44:50;32.70;99.90
11142;DHT22;5625;50.122;19.864;2022-09-09T11:47:23;32.80;99.90
11142;DHT22;5625;50.122;19.864;2022-09-09T11:50:07;32.70;99.90
11142;DHT22;5625;50.122;19.864;2022-09-09T11:52:37;32.70;99.90
11142;DHT22;5625;50.122;19.864;2022-09-09T11:55:09;32.80;99.90
11142;DHT22;5625;50.122;19.864;2022-09-09T11:57:40;33.00;99.90
11142;DHT22;5625;50.122;19.864;2022-09-09T12:00:32;32.90;99.90
11142;DHT22;5625;50.122;19.864;2022-09-09T12:03:01;32.90;99.90
11142;DHT22;5625;50.122;19.864;2022-09-09T12:05:37;32.90;99.90
11142;DHT22;5625;50.122;19.864;2022-09-09T12:08:08;32.90;99.90
11142;DHT22;5625;50.122;19.864;2022-09-09T12:10:39;32.90;99.90
11142;DHT22;5625;50.122;19.864;2022-09-09T12:13:16;32.90;99.90
11142;DHT22;5625;50.122;19.864;2022-09-09T12:15:50;32.90;99.90
11142;DHT22;5625;50.122;19.864;2022-09-09T12:18:23;32.70;99.90
11142;DHT22;5625;50.122;19.864;2022-09-09T12:20:57;32.60;99.90
11142;DHT22;5625;50.122;19.864;2022-09-09T12:23:36;32.40;99.90
11142;DHT22;5625;50.122;19.864;2022-09-09T12:26:18;32.00;99.90
11142;DHT22;5625;50.122;19.864;2022-09-09T12:28:59;31.70;99.90
11142;DHT22;5625;50.122;19.864;2022-09-09T12:31:34;31.70;99.90
11142;DHT22;5625;50.122;19.864;2022-09-09T12:34:14;31.80;99.90
11142;DHT22;5625;50.122;19.864;2022-09-09T12:36:44;31.80;99.90
11142;DHT22;5625;50.122;19.864;2022-09-09T12:39:24;31.80;99.90
11142;DHT22;5625;50.122;19.864;2022-09-09T12:41:55;31.90;99.90
11142;DHT22;5625;50.122;19.864;2022-09-09T12:44:26;31.80;99.90
11142;DHT22;5625;50.122;19.864;2022-09-09T12:46:57;31.60;99.90
11142;DHT22;5625;50.122;19.864;2022-09-09T12:49:30;31.20;99.90
11142;DHT22;5625;50.122;19.864;2022-09-09T12:52:03;31.10;99.90
11142;DHT22;5625;50.122;19.864;2022-09-09T12:54:34;31.00;99.90
11142;DHT22;5625;50.122;19.864;2022-09-09T12:57:03;30.80;99.90
11142;DHT22;5625;50.122;19.864;2022-09-09T12:59:37;30.50;99.90
11142;DHT22;5625;50.122;19.864;2022-09-09T13:02:16;30.30;99.90
11142;DHT22;5625;50.122;19.864;2022-09-09T13:04:48;30.20;99.90
11142;DHT22;5625;50.122;19.864;2022-09-09T13:07:17;30.00;99.90
11142;DHT22;5625;50.122;19.864;2022-09-09T13:09:49;30.00;99.90
11142;DHT22;5625;50.122;19.864;2022-09-09T13:12:21;29.80;99.90
11142;DHT22;5625;50.122;19.864;2022-09-09T13:14:54;29.80;99.90
11142;DHT22;5625;50.122;19.864;2022-09-09T13:17:25;29.70;99.90
11142;DHT22;5625;50.122;19.864;2022-09-09T13:19:56;29.70;99.90
11142;DHT22;5625;50.122;19.864;2022-09-09T13:22:31;29.80;99.90
11142;DHT22;5625;50.122;19.864;2022-09-09T13:25:02;29.80;1.00
11142;DHT22;5625;50.122;19.864;2022-09-09T13:27:32;29.70;1.00
11142;DHT22;5625;50.122;19.864;2022-09-09T13:30:21;29.70;1.00
11142;DHT22;5625;50.122;19.864;2022-09-09T13:33:04;29.70;1.00
11142;DHT22;5625;50.122;19.864;2022-09-09T13:35:33;29.60;1.00
11142;DHT22;5625;50.122;19.864;2022-09-09T13:38:07;29.50;1.00
11142;DHT22;5625;50.122;19.864;2022-09-09T13:40:37;29.50;29.10
11142;DHT22;5625;50.122;19.864;2022-09-09T13:43:16;29.50;99.90
11142;DHT22;5625;50.122;19.864;2022-09-09T13:45:54;29.50;10.30
11142;DHT22;5625;50.122;19.864;2022-09-09T13:48:23;29.40;99.90
11142;DHT22;5625;50.122;19.864;2022-09-09T13:50:56;29.30;82.00
11142;DHT22;5625;50.122;19.864;2022-09-09T13:53:25;29.30;99.90
11142;DHT22;5625;50.122;19.864;2022-09-09T13:55:53;29.20;99.90
11142;DHT22;5625;50.122;19.864;2022-09-09T13:58:21;29.10;99.90
11142;DHT22;5625;50.122;19.864;2022-09-09T14:00:53;29.00;99.90
11142;DHT22;5625;50.122;19.864;2022-09-09T14:03:21;29.00;1.00
11142;DHT22;5625;50.122;19.864;2022-09-09T14:05:49;29.00;1.00
11142;DHT22;5625;50.122;19.864;2022-09-09T14:08:24;28.80;1.00
11142;DHT22;5625;50.122;19.864;2022-09-09T14:10:53;28.80;1.00
11142;DHT22;5625;50.122;19.864;2022-09-09T14:13:26;28.80;26.80
11142;DHT22;5625;50.122;19.864;2022-09-09T14:15:55;28.80;32.20
11142;DHT22;5625;50.122;19.864;2022-09-09T14:18:23;28.70;99.90
11142;DHT22;5625;50.122;19.864;2022-09-09T14:20:52;28.70;19.00
11142;DHT22;5625;50.122;19.864;2022-09-09T14:23:20;28.60;19.80
11142;DHT22;5625;50.122;19.864;2022-09-09T14:25:49;28.50;12.70
11142;DHT22;5625;50.122;19.864;2022-09-09T14:28:18;28.40;30.60
11142;DHT22;5625;50.122;19.864;2022-09-09T14:31:08;28.40;61.50
11142;DHT22;5625;50.122;19.864;2022-09-09T14:33:37;28.20;99.90
11142;DHT22;5625;50.122;19.864;2022-09-09T14:36:05;28.20;94.90
11142;DHT22;5625;50.122;19.864;2022-09-09T14:38:35;28.10;99.90
11142;DHT22;5625;50.122;19.864;2022-09-09T14:41:06;28.00;99.90
11142;DHT22;5625;50.122;19.864;2022-09-09T14:43:34;27.90;99.90
11142;DHT22;5625;50.122;19.864;2022-09-09T14:46:05;27.90;99.90
11142;DHT22;5625;50.122;19.864;2022-09-09T14:48:34;27.80;1.00
11142;DHT22;5625;50.122;19.864;2022-09-09T14:51:07;27.70;1.00
11142;DHT22;5625;50.122;19.864;2022-09-09T14:53:36;27.50;1.00
11142;DHT22;5625;50.122;19.864;2022-09-09T14:56:08;27.40;99.90
11142;DHT22;5625;50.122;19.864;2022-09-09T14:58:37;27.40;99.90
11142;DHT22;5625;50.122;19.864;2022-09-09T15:01:07;27.30;99.90
11142;DHT22;5625;50.122;19.864;2022-09-09T15:03:38;27.30;1.00
11142;DHT22;5625;50.122;19.864;2022-09-09T15:06:07;27.20;1.00
11142;DHT22;5625;50.122;19.864;2022-09-09T15:08:36;27.20;1.00
11142;DHT22;5625;50.122;19.864;2022-09-09T15:11:10;27.20;39.10
11142;DHT22;5625;50.122;19.864;2022-09-09T15:13:40;27.20;1.00
11142;DHT22;5625;50.122;19.864;2022-09-09T15:16:10;27.20;1.00
11142;DHT22;5625;50.122;19.864;2022-09-09T15:18:40;27.20;1.00
11142;DHT22;5625;50.122;19.864;2022-09-09T15:21:10;27.10;1.00
11142;DHT22;5625;50.122;19.864;2022-09-09T15:23:39;27.10;76.70
11142;DHT22;5625;50.122;19.864;2022-09-09T15:26:08;27.10;99.90
11142;DHT22;5625;50.122;19.864;2022-09-09T15:28:37;27.10;99.90
11142;DHT22;5625;50.122;19.864;2022-09-09T15:31:07;27.00;99.90
11142;DHT22;5625;50.122;19.864;2022-09-09T15:33:37;26.90;90.20
11142;DHT22;5625;50.122;19.864;2022-09-09T15:36:15;26.90;83.90
11142;DHT22;5625;50.122;19.864;2022-09-09T15:38:44;26.90;99.90
11142;DHT22;5625;50.122;19.864;2022-09-09T15:41:13;26.90;99.90
11142;DHT22;5625;50.122;19.864;2022-09-09T15:43:43;26.80;99.90
11142;DHT22;5625;50.122;19.864;2022-09-09T15:46:26;26.70;99.90
11142;DHT22;5625;50.122;19.864;2022-09-09T15:48:56;26.70;99.90
11142;DHT22;5625;50.122;19.864;2022-09-09T15:51:26;26.60;99.90
11142;DHT22;5625;50.122;19.864;2022-09-09T15:54:12;26.50;99.90
11142;DHT22;5625;50.122;19.864;2022-09-09T15:56:41;26.50;99.90
11142;DHT22;5625;50.122;19.864;2022-09-09T15:59:09;26.40;99.90
11142;DHT22;5625;50.122;19.864;2022-09-09T16:01:38;26.40;99.90
11142;DHT22;5625;50.122;19.864;2022-09-09T16:04:07;26.30;99.90
11142;DHT22;5625;50.122;19.864;2022-09-09T16:06:37;26.30;99.90
11142;DHT22;5625;50.122;19.864;2022-09-09T16:09:06;26.20;1.00